sensor_id;sensor_type;location;lat;lon;timestamp;P1;durP1;ratioP1;P2;durP2;ratioP2
42244;SDS011;27912;51.828;5.688;2023-07-13T00:02:14;4.35;;;0.80;;
42244;SDS011;27912;51.828;5.688;2023-07-13T00:04:40;5.82;;;0.60;;
42244;SDS011;27912;51.828;5.688;2023-07-13T00:07:06;9.18;;;1.05;;
42244;SDS011;27912;51.828;5.688;2023-07-13T00:09:33;4.82;;;0.50;;
42244;SDS011;27912;51.828;5.688;2023-07-13T00:11:58;3.92;;;0.60;;
42244;SDS011;27912;51.828;5.688;2023-07-13T00:14:25;8.38;;;0.82;;
42244;SDS011;27912;51.828;5.688;2023-07-13T00:16:52;5.05;;;0.63;;
42244;SDS011;27912;51.828;5.688;2023-07-13T00:19:18;4.60;;;0.73;;
42244;SDS011;27912;51.828;5.688;2023-07-13T00:21:43;7.07;;;1.52;;
42244;SDS011;27912;51.828;5.688;2023-07-13T00:24:11;9.35;;;0.90;;
42244;SDS011;27912;51.828;5.688;2023-07-13T00:26:38;6.45;;;1.10;;
42244;SDS011;27912;51.828;5.688;2023-07-13T00:29:04;4.05;;;0.70;;
42244;SDS011;27912;51.828;5.688;2023-07-13T00:31:33;8.45;;;0.95;;
42244;SDS011;27912;51.828;5.688;2023-07-13T00:34:00;5.10;;;0.57;;
42244;SDS011;27912;51.828;5.688;2023-07-13T00:36:25;4.80;;;0.98;;
42244;SDS011;27912;51.828;5.688;2023-07-13T00:38:51;4.13;;;0.70;;
42244;SDS011;27912;51.828;5.688;2023-07-13T00:41:18;7.20;;;1.17;;
42244;SDS011;27912;51.828;5.688;2023-07-13T00:43:44;8.77;;;0.68;;
42244;SDS011;27912;51.828;5.688;2023-07-13T00:46:31;2.83;;;0.60;;
42244;SDS011;27912;51.828;5.688;2023-07-13T00:48:59;5.80;;;0.70;;
42244;SDS011;27912;51.828;5.688;2023-07-13T00:51:31;4.85;;;0.70;;
42244;SDS011;27912;51.828;5.688;2023-07-13T00:54:07;11.15;;;1.05;;
42244;SDS011;27912;51.828;5.688;2023-07-13T00:56:36;4.65;;;0.73;;
42244;SDS011;27912;51.828;5.688;2023-07-13T00:59:04;6.07;;;1.08;;
42244;SDS011;27912;51.828;5.688;2023-07-13T01:01:33;7.35;;;0.82;;
42244;SDS011;27912;51.828;5.688;2023-07-13T01:03:59;5.50;;;0.80;;
42244;SDS011;27912;51.828;5.688;2023-07-13T01:06:24;6.95;;;1.33;;
42244;SDS011;27912;51.828;5.688;2023-07-13T01:08:50;7.13;;;0.80;;
42244;SDS011;27912;51.828;5.688;2023-07-13T01:11:20;4.43;;;0.90;;
42244;SDS011;27912;51.828;5.688;2023-07-13T01:13:47;5.45;;;0.90;;
42244;SDS011;27912;51.828;5.688;2023-07-13T01:16:25;5.70;;;1.42;;
42244;SDS011;27912;51.828;5.688;2023-07-13T01:18:54;6.93;;;0.98;;
42244;SDS011;27912;51.828;5.688;2023-07-13T01:21:23;7.40;;;1.15;;
42244;SDS011;27912;51.828;5.688;2023-07-13T01:23:49;6.28;;;0.88;;
42244;SDS011;27912;51.828;5.688;2023-07-13T01:26:15;5.40;;;1.08;;
42244;SDS011;27912;51.828;5.688;2023-07-13T01:28:41;5.13;;;0.90;;
42244;SDS011;27912;51.828;5.688;2023-07-13T01:31:06;2.60;;;0.90;;
42244;SDS011;27912;51.828;5.688;2023-07-13T01:33:33;6.43;;;1.10;;
42244;SDS011;27912;51.828;5.688;2023-07-13T01:35:59;7.68;;;0.80;;
42244;SDS011;27912;51.828;5.688;2023-07-13T01:38:27;4.85;;;1.00;;
42244;SDS011;27912;51.828;5.688;2023-07-13T01:40:53;5.93;;;1.30;;
42244;SDS011;27912;51.828;5.688;2023-07-13T01:43:19;5.35;;;1.10;;
42244;SDS011;27912;51.828;5.688;2023-07-13T01:45:45;5.75;;;1.00;;
42244;SDS011;27912;51.828;5.688;2023-07-13T01:48:11;7.38;;;1.15;;
42244;SDS011;27912;51.828;5.688;2023-07-13T01:50:37;9.13;;;1.17;;
42244;SDS011;27912;51.828;5.688;2023-07-13T01:53:03;8.82;;;1.35;;
42244;SDS011;27912;51.828;5.688;2023-07-13T01:55:29;6.18;;;1.50;;
42244;SDS011;27912;51.828;5.688;2023-07-13T01:57:55;10.02;;;2.03;;
42244;SDS011;27912;51.828;5.688;2023-07-13T02:00:21;7.65;;;1.50;;
42244;SDS011;27912;51.828;5.688;2023-07-13T02:02:47;6.78;;;1.20;;
42244;SDS011;27912;51.828;5.688;2023-07-13T02:05:12;4.43;;;1.27;;
42244;SDS011;27912;51.828;5.688;2023-07-13T02:07:39;5.30;;;1.23;;
42244;SDS011;27912;51.828;5.688;2023-07-13T02:10:05;6.25;;;1.50;;
42244;SDS011;27912;51.828;5.688;2023-07-13T02:12:32;7.55;;;1.70;;
42244;SDS011;27912;51.828;5.688;2023-07-13T02:14:58;16.30;;;2.10;;
42244;SDS011;27912;51.828;5.688;2023-07-13T02:17:24;6.60;;;1.45;;
42244;SDS011;27912;51.828;5.688;2023-07-13T02:19:50;5.55;;;1.40;;
42244;SDS011;27912;51.828;5.688;2023-07-13T02:22:16;7.60;;;1.33;;
42244;SDS011;27912;51.828;5.688;2023-07-13T02:24:41;7.00;;;1.45;;
42244;SDS011;27912;51.828;5.688;2023-07-13T02:27:07;5.72;;;1.50;;
42244;SDS011;27912;51.828;5.688;2023-07-13T02:29:32;5.20;;;1.70;;
42244;SDS011;27912;51.828;5.688;2023-07-13T02:31:58;6.85;;;1.20;;
42244;SDS011;27912;51.828;5.688;2023-07-13T02:34:24;7.15;;;1.27;;
42244;SDS011;27912;51.828;5.688;2023-07-13T02:36:49;8.55;;;1.80;;
42244;SDS011;27912;51.828;5.688;2023-07-13T02:39:15;8.07;;;1.60;;
42244;SDS011;27912;51.828;5.688;2023-07-13T02:41:40;10.55;;;2.35;;
42244;SDS011;27912;51.828;5.688;2023-07-13T02:44:06;6.43;;;1.92;;
42244;SDS011;27912;51.828;5.688;2023-07-13T02:46:33;8.43;;;1.58;;
42244;SDS011;27912;51.828;5.688;2023-07-13T02:49:02;7.75;;;1.85;;
42244;SDS011;27912;51.828;5.688;2023-07-13T02:51:28;11.05;;;2.03;;
42244;SDS011;27912;51.828;5.688;2023-07-13T02:53:54;7.10;;;1.73;;
42244;SDS011;27912;51.828;5.688;2023-07-13T02:56:24;9.80;;;2.25;;
42244;SDS011;27912;51.828;5.688;2023-07-13T02:58:52;8.77;;;1.77;;
42244;SDS011;27912;51.828;5.688;2023-07-13T03:01:17;8.00;;;1.52;;
42244;SDS011;27912;51.828;5.688;2023-07-13T03:03:44;9.32;;;2.05;;
42244;SDS011;27912;51.828;5.688;2023-07-13T03:06:10;6.70;;;1.83;;
42244;SDS011;27912;51.828;5.688;2023-07-13T03:08:37;7.80;;;1.50;;
42244;SDS011;27912;51.828;5.688;2023-07-13T03:11:03;10.18;;;1.58;;
42244;SDS011;27912;51.828;5.688;2023-07-13T03:13:30;7.13;;;1.60;;
42244;SDS011;27912;51.828;5.688;2023-07-13T03:15:56;5.95;;;1.60;;
42244;SDS011;27912;51.828;5.688;2023-07-13T03:18:22;8.73;;;2.08;;
42244;SDS011;27912;51.828;5.688;2023-07-13T03:20:50;13.27;;;2.45;;
42244;SDS011;27912;51.828;5.688;2023-07-13T03:23:16;6.05;;;2.10;;
42244;SDS011;27912;51.828;5.688;2023-07-13T03:25:42;11.95;;;2.50;;
42244;SDS011;27912;51.828;5.688;2023-07-13T03:28:07;8.35;;;2.42;;
42244;SDS011;27912;51.828;5.688;2023-07-13T03:30:33;10.20;;;2.67;;
42244;SDS011;27912;51.828;5.688;2023-07-13T03:32:58;7.80;;;2.92;;
42244;SDS011;27912;51.828;5.688;2023-07-13T03:35:24;12.18;;;2.95;;
42244;SDS011;27912;51.828;5.688;2023-07-13T03:37:50;6.88;;;2.30;;
42244;SDS011;27912;51.828;5.688;2023-07-13T03:40:16;14.48;;;2.85;;
42244;SDS011;27912;51.828;5.688;2023-07-13T03:42:42;14.73;;;3.63;;
42244;SDS011;27912;51.828;5.688;2023-07-13T03:45:08;10.18;;;2.78;;
42244;SDS011;27912;51.828;5.688;2023-07-13T03:47:33;13.45;;;2.55;;
42244;SDS011;27912;51.828;5.688;2023-07-13T03:49:59;16.45;;;3.00;;
42244;SDS011;27912;51.828;5.688;2023-07-13T03:52:24;9.00;;;2.22;;
42244;SDS011;27912;51.828;5.688;2023-07-13T03:54:50;9.15;;;2.95;;
42244;SDS011;27912;51.828;5.688;2023-07-13T03:57:15;12.25;;;2.85;;
42244;SDS011;27912;51.828;5.688;2023-07-13T03:59:41;10.88;;;2.40;;
42244;SDS011;27912;51.828;5.688;2023-07-13T04:02:07;14.25;;;2.78;;
42244;SDS011;27912;51.828;5.688;2023-07-13T04:04:32;9.32;;;2.58;;
42244;SDS011;27912;51.828;5.688;2023-07-13T04:06:58;11.13;;;2.30;;
42244;SDS011;27912;51.828;5.688;2023-07-13T04:09:24;9.60;;;3.13;;
42244;SDS011;27912;51.828;5.688;2023-07-13T04:11:50;13.23;;;2.80;;
42244;SDS011;27912;51.828;5.688;2023-07-13T04:14:16;14.30;;;2.80;;
42244;SDS011;27912;51.828;5.688;2023-07-13T04:16:42;11.73;;;2.33;;
42244;SDS011;27912;51.828;5.688;2023-07-13T04:19:08;11.27;;;2.80;;
42244;SDS011;27912;51.828;5.688;2023-07-13T04:21:35;14.48;;;3.13;;
42244;SDS011;27912;51.828;5.688;2023-07-13T04:24:01;9.98;;;3.00;;
42244;SDS011;27912;51.828;5.688;2023-07-13T04:26:28;13.32;;;3.05;;
42244;SDS011;27912;51.828;5.688;2023-07-13T04:28:54;10.23;;;2.90;;
42244;SDS011;27912;51.828;5.688;2023-07-13T04:31:20;12.75;;;3.10;;
42244;SDS011;27912;51.828;5.688;2023-07-13T04:33:46;10.43;;;3.70;;
42244;SDS011;27912;51.828;5.688;2023-07-13T04:36:12;11.05;;;2.88;;
42244;SDS011;27912;51.828;5.688;2023-07-13T04:38:38;13.38;;;3.60;;
42244;SDS011;27912;51.828;5.688;2023-07-13T04:41:05;14.18;;;3.30;;
42244;SDS011;27912;51.828;5.688;2023-07-13T04:43:32;10.48;;;4.05;;
42244;SDS011;27912;51.828;5.688;2023-07-13T04:46:03;8.60;;;2.55;;
42244;SDS011;27912;51.828;5.688;2023-07-13T04:48:30;11.80;;;3.58;;
42244;SDS011;27912;51.828;5.688;2023-07-13T04:50:56;11.27;;;3.22;;
42244;SDS011;27912;51.828;5.688;2023-07-13T04:53:23;16.38;;;4.05;;
42244;SDS011;27912;51.828;5.688;2023-07-13T04:55:50;14.80;;;4.35;;
42244;SDS011;27912;51.828;5.688;2023-07-13T04:58:15;12.85;;;3.85;;
42244;SDS011;27912;51.828;5.688;2023-07-13T05:00:41;12.18;;;4.10;;
42244;SDS011;27912;51.828;5.688;2023-07-13T05:03:07;11.77;;;3.72;;
42244;SDS011;27912;51.828;5.688;2023-07-13T05:05:32;13.40;;;3.53;;
42244;SDS011;27912;51.828;5.688;2023-07-13T05:07:59;12.13;;;3.38;;
42244;SDS011;27912;51.828;5.688;2023-07-13T05:10:25;9.98;;;3.17;;
42244;SDS011;27912;51.828;5.688;2023-07-13T05:12:50;17.20;;;3.65;;
42244;SDS011;27912;51.828;5.688;2023-07-13T05:15:16;8.75;;;3.63;;
42244;SDS011;27912;51.828;5.688;2023-07-13T05:17:46;12.43;;;4.07;;
42244;SDS011;27912;51.828;5.688;2023-07-13T05:20:12;14.10;;;4.60;;
42244;SDS011;27912;51.828;5.688;2023-07-13T05:22:38;14.20;;;3.97;;
42244;SDS011;27912;51.828;5.688;2023-07-13T05:25:07;11.05;;;4.22;;
42244;SDS011;27912;51.828;5.688;2023-07-13T05:27:33;15.02;;;4.53;;
42244;SDS011;27912;51.828;5.688;2023-07-13T05:30:00;15.65;;;5.22;;
42244;SDS011;27912;51.828;5.688;2023-07-13T05:32:26;16.00;;;4.50;;
42244;SDS011;27912;51.828;5.688;2023-07-13T05:34:52;15.90;;;5.18;;
42244;SDS011;27912;51.828;5.688;2023-07-13T05:37:18;15.88;;;6.00;;
42244;SDS011;27912;51.828;5.688;2023-07-13T05:39:43;19.88;;;5.88;;
42244;SDS011;27912;51.828;5.688;2023-07-13T05:42:09;21.90;;;6.78;;
42244;SDS011;27912;51.828;5.688;2023-07-13T05:44:35;17.50;;;6.25;;
42244;SDS011;27912;51.828;5.688;2023-07-13T05:47:00;13.07;;;6.70;;
42244;SDS011;27912;51.828;5.688;2023-07-13T05:49:26;19.60;;;7.20;;
42244;SDS011;27912;51.828;5.688;2023-07-13T05:51:52;19.27;;;7.32;;
42244;SDS011;27912;51.828;5.688;2023-07-13T05:54:18;18.50;;;8.38;;
42244;SDS011;27912;51.828;5.688;2023-07-13T05:56:43;21.58;;;8.63;;
42244;SDS011;27912;51.828;5.688;2023-07-13T05:59:09;17.95;;;8.13;;
42244;SDS011;27912;51.828;5.688;2023-07-13T06:01:35;24.20;;;9.30;;
42244;SDS011;27912;51.828;5.688;2023-07-13T06:04:00;25.52;;;9.75;;
42244;SDS011;27912;51.828;5.688;2023-07-13T06:06:26;23.40;;;9.15;;
42244;SDS011;27912;51.828;5.688;2023-07-13T06:08:52;16.63;;;9.32;;
42244;SDS011;27912;51.828;5.688;2023-07-13T06:11:22;23.92;;;9.23;;
42244;SDS011;27912;51.828;5.688;2023-07-13T06:13:49;27.58;;;10.90;;
42244;SDS011;27912;51.828;5.688;2023-07-13T06:16:15;25.73;;;9.90;;
42244;SDS011;27912;51.828;5.688;2023-07-13T06:18:41;22.13;;;10.95;;
42244;SDS011;27912;51.828;5.688;2023-07-13T06:21:09;20.50;;;10.55;;
42244;SDS011;27912;51.828;5.688;2023-07-13T06:23:37;21.73;;;10.60;;
42244;SDS011;27912;51.828;5.688;2023-07-13T06:26:03;20.80;;;9.98;;
42244;SDS011;27912;51.828;5.688;2023-07-13T06:28:30;21.30;;;10.00;;
42244;SDS011;27912;51.828;5.688;2023-07-13T06:30:57;20.63;;;10.00;;
42244;SDS011;27912;51.828;5.688;2023-07-13T06:33:23;20.98;;;9.15;;
42244;SDS011;27912;51.828;5.688;2023-07-13T06:35:48;27.85;;;11.55;;
42244;SDS011;27912;51.828;5.688;2023-07-13T06:38:14;25.27;;;11.80;;
42244;SDS011;27912;51.828;5.688;2023-07-13T06:40:40;26.92;;;11.75;;
42244;SDS011;27912;51.828;5.688;2023-07-13T06:43:06;20.67;;;10.43;;
42244;SDS011;27912;51.828;5.688;2023-07-13T06:45:36;27.83;;;12.13;;
42244;SDS011;27912;51.828;5.688;2023-07-13T06:48:07;20.52;;;11.00;;
42244;SDS011;27912;51.828;5.688;2023-07-13T06:50:33;25.05;;;11.80;;
42244;SDS011;27912;51.828;5.688;2023-07-13T06:52:58;24.17;;;11.80;;
42244;SDS011;27912;51.828;5.688;2023-07-13T06:55:24;23.45;;;10.93;;
42244;SDS011;27912;51.828;5.688;2023-07-13T06:57:50;25.00;;;11.85;;
42244;SDS011;27912;51.828;5.688;2023-07-13T07:00:16;21.65;;;10.77;;
42244;SDS011;27912;51.828;5.688;2023-07-13T07:02:42;21.27;;;11.23;;
42244;SDS011;27912;51.828;5.688;2023-07-13T07:05:07;22.95;;;10.95;;
42244;SDS011;27912;51.828;5.688;2023-07-13T07:07:33;28.73;;;11.57;;
42244;SDS011;27912;51.828;5.688;2023-07-13T07:09:59;21.58;;;12.05;;
42244;SDS011;27912;51.828;5.688;2023-07-13T07:12:24;22.02;;;11.55;;
42244;SDS011;27912;51.828;5.688;2023-07-13T07:14:50;23.98;;;13.02;;
42244;SDS011;27912;51.828;5.688;2023-07-13T07:17:16;27.33;;;14.18;;
42244;SDS011;27912;51.828;5.688;2023-07-13T07:19:41;23.13;;;11.35;;
42244;SDS011;27912;51.828;5.688;2023-07-13T07:22:07;19.88;;;10.85;;
42244;SDS011;27912;51.828;5.688;2023-07-13T07:24:32;25.77;;;11.35;;
42244;SDS011;27912;51.828;5.688;2023-07-13T07:26:58;20.60;;;11.07;;
42244;SDS011;27912;51.828;5.688;2023-07-13T07:29:24;21.10;;;11.93;;
42244;SDS011;27912;51.828;5.688;2023-07-13T07:31:51;26.02;;;11.57;;
42244;SDS011;27912;51.828;5.688;2023-07-13T07:34:17;22.02;;;12.07;;
42244;SDS011;27912;51.828;5.688;2023-07-13T07:36:43;22.67;;;13.55;;
42244;SDS011;27912;51.828;5.688;2023-07-13T07:39:09;23.88;;;12.27;;
42244;SDS011;27912;51.828;5.688;2023-07-13T07:41:34;20.73;;;11.68;;
42244;SDS011;27912;51.828;5.688;2023-07-13T07:44:00;24.70;;;11.45;;
42244;SDS011;27912;51.828;5.688;2023-07-13T07:46:25;23.17;;;11.68;;
42244;SDS011;27912;51.828;5.688;2023-07-13T07:48:51;21.13;;;10.90;;
42244;SDS011;27912;51.828;5.688;2023-07-13T07:51:17;19.20;;;11.27;;
42244;SDS011;27912;51.828;5.688;2023-07-13T07:53:42;17.63;;;11.18;;
42244;SDS011;27912;51.828;5.688;2023-07-13T07:56:08;19.20;;;10.10;;
42244;SDS011;27912;51.828;5.688;2023-07-13T07:58:35;16.67;;;9.48;;
42244;SDS011;27912;51.828;5.688;2023-07-13T08:01:06;17.80;;;9.70;;
42244;SDS011;27912;51.828;5.688;2023-07-13T08:03:32;22.42;;;11.40;;
42244;SDS011;27912;51.828;5.688;2023-07-13T08:05:57;16.73;;;10.68;;
42244;SDS011;27912;51.828;5.688;2023-07-13T08:08:23;21.10;;;9.98;;
42244;SDS011;27912;51.828;5.688;2023-07-13T08:10:49;16.85;;;10.20;;
42244;SDS011;27912;51.828;5.688;2023-07-13T08:13:15;16.98;;;10.43;;
42244;SDS011;27912;51.828;5.688;2023-07-13T08:15:40;18.60;;;11.20;;
42244;SDS011;27912;51.828;5.688;2023-07-13T08:18:06;25.02;;;10.35;;
42244;SDS011;27912;51.828;5.688;2023-07-13T08:20:36;22.63;;;11.15;;
42244;SDS011;27912;51.828;5.688;2023-07-13T08:23:05;20.90;;;11.02;;
42244;SDS011;27912;51.828;5.688;2023-07-13T08:25:31;17.23;;;10.32;;
42244;SDS011;27912;51.828;5.688;2023-07-13T08:27:57;16.10;;;10.98;;
42244;SDS011;27912;51.828;5.688;2023-07-13T08:30:23;18.52;;;11.68;;
42244;SDS011;27912;51.828;5.688;2023-07-13T08:32:48;21.30;;;10.50;;
42244;SDS011;27912;51.828;5.688;2023-07-13T08:35:14;21.85;;;11.07;;
42244;SDS011;27912;51.828;5.688;2023-07-13T08:37:41;17.77;;;10.65;;
42244;SDS011;27912;51.828;5.688;2023-07-13T08:40:08;16.63;;;8.85;;
42244;SDS011;27912;51.828;5.688;2023-07-13T08:42:37;16.13;;;8.48;;
42244;SDS011;27912;51.828;5.688;2023-07-13T08:48:21;11.55;;;5.72;;
42244;SDS011;27912;51.828;5.688;2023-07-13T08:50:54;9.50;;;5.85;;
42244;SDS011;27912;51.828;5.688;2023-07-13T08:53:22;13.40;;;6.45;;
42244;SDS011;27912;51.828;5.688;2023-07-13T08:55:51;13.20;;;6.32;;
42244;SDS011;27912;51.828;5.688;2023-07-13T08:58:24;15.52;;;7.20;;
42244;SDS011;27912;51.828;5.688;2023-07-13T09:04:03;15.50;;;8.00;;
42244;SDS011;27912;51.828;5.688;2023-07-13T09:12:12;10.95;;;4.40;;
42244;SDS011;27912;51.828;5.688;2023-07-13T09:14:51;11.98;;;6.40;;
42244;SDS011;27912;51.828;5.688;2023-07-13T09:17:29;10.55;;;5.53;;
42244;SDS011;27912;51.828;5.688;2023-07-13T09:20:18;9.88;;;4.93;;
42244;SDS011;27912;51.828;5.688;2023-07-13T09:22:54;11.73;;;4.72;;
42244;SDS011;27912;51.828;5.688;2023-07-13T09:25:31;6.85;;;3.35;;
42244;SDS011;27912;51.828;5.688;2023-07-13T09:33:12;11.70;;;5.50;;
42244;SDS011;27912;51.828;5.688;2023-07-13T09:35:39;10.75;;;4.90;;
42244;SDS011;27912;51.828;5.688;2023-07-13T09:38:14;11.18;;;5.40;;
42244;SDS011;27912;51.828;5.688;2023-07-13T09:40:44;8.10;;;5.55;;
42244;SDS011;27912;51.828;5.688;2023-07-13T09:43:28;11.52;;;6.00;;
42244;SDS011;27912;51.828;5.688;2023-07-13T09:45:55;14.93;;;6.80;;
42244;SDS011;27912;51.828;5.688;2023-07-13T09:48:21;15.20;;;6.03;;
42244;SDS011;27912;51.828;5.688;2023-07-13T09:50:46;13.43;;;5.28;;
42244;SDS011;27912;51.828;5.688;2023-07-13T09:55:40;13.38;;;6.13;;
42244;SDS011;27912;51.828;5.688;2023-07-13T10:00:37;17.25;;;7.97;;
42244;SDS011;27912;51.828;5.688;2023-07-13T10:03:09;12.50;;;6.35;;
42244;SDS011;27912;51.828;5.688;2023-07-13T10:05:46;13.15;;;8.35;;
42244;SDS011;27912;51.828;5.688;2023-07-13T10:08:20;16.45;;;8.30;;
42244;SDS011;27912;51.828;5.688;2023-07-13T10:11:07;15.60;;;7.50;;
42244;SDS011;27912;51.828;5.688;2023-07-13T10:13:46;14.02;;;7.57;;
42244;SDS011;27912;51.828;5.688;2023-07-13T10:16:15;12.30;;;6.00;;
42244;SDS011;27912;51.828;5.688;2023-07-13T10:18:53;14.35;;;6.95;;
42244;SDS011;27912;51.828;5.688;2023-07-13T10:21:22;10.77;;;6.32;;
42244;SDS011;27912;51.828;5.688;2023-07-13T10:26:43;9.52;;;6.40;;
42244;SDS011;27912;51.828;5.688;2023-07-13T10:29:14;14.80;;;6.15;;
42244;SDS011;27912;51.828;5.688;2023-07-13T10:31:41;16.95;;;6.40;;
42244;SDS011;27912;51.828;5.688;2023-07-13T10:34:10;9.98;;;4.95;;
42244;SDS011;27912;51.828;5.688;2023-07-13T10:36:45;9.95;;;4.43;;
42244;SDS011;27912;51.828;5.688;2023-07-13T10:39:30;9.40;;;4.20;;
42244;SDS011;27912;51.828;5.688;2023-07-13T10:42:03;11.73;;;4.38;;
42244;SDS011;27912;51.828;5.688;2023-07-13T10:44:34;11.63;;;4.15;;
42244;SDS011;27912;51.828;5.688;2023-07-13T10:47:01;8.32;;;2.50;;
42244;SDS011;27912;51.828;5.688;2023-07-13T10:49:32;6.03;;;1.65;;
42244;SDS011;27912;51.828;5.688;2023-07-13T10:52:00;5.47;;;1.40;;
42244;SDS011;27912;51.828;5.688;2023-07-13T10:57:14;6.75;;;2.10;;
42244;SDS011;27912;51.828;5.688;2023-07-13T10:59:49;8.02;;;3.08;;
42244;SDS011;27912;51.828;5.688;2023-07-13T11:02:40;11.93;;;3.67;;
42244;SDS011;27912;51.828;5.688;2023-07-13T11:05:17;7.43;;;3.40;;
42244;SDS011;27912;51.828;5.688;2023-07-13T11:08:02;10.30;;;4.03;;
42244;SDS011;27912;51.828;5.688;2023-07-13T11:16:11;7.35;;;3.50;;
42244;SDS011;27912;51.828;5.688;2023-07-13T11:18:47;10.95;;;2.92;;
42244;SDS011;27912;51.828;5.688;2023-07-13T11:23:44;8.95;;;2.88;;
42244;SDS011;27912;51.828;5.688;2023-07-13T11:31:42;8.20;;;3.08;;
42244;SDS011;27912;51.828;5.688;2023-07-13T11:34:18;7.38;;;2.80;;
42244;SDS011;27912;51.828;5.688;2023-07-13T11:37:02;6.32;;;1.65;;
42244;SDS011;27912;51.828;5.688;2023-07-13T11:39:29;5.63;;;2.20;;
42244;SDS011;27912;51.828;5.688;2023-07-13T11:41:56;3.65;;;1.40;;
42244;SDS011;27912;51.828;5.688;2023-07-13T11:44:26;6.00;;;1.55;;
42244;SDS011;27912;51.828;5.688;2023-07-13T11:46:55;5.72;;;2.15;;
42244;SDS011;27912;51.828;5.688;2023-07-13T11:49:29;6.90;;;2.10;;
42244;SDS011;27912;51.828;5.688;2023-07-13T11:51:56;8.05;;;2.42;;
42244;SDS011;27912;51.828;5.688;2023-07-13T11:54:24;4.25;;;2.25;;
42244;SDS011;27912;51.828;5.688;2023-07-13T11:56:53;5.53;;;2.70;;
42244;SDS011;27912;51.828;5.688;2023-07-13T11:59:23;10.20;;;2.50;;
42244;SDS011;27912;51.828;5.688;2023-07-13T12:01:51;6.47;;;3.20;;
42244;SDS011;27912;51.828;5.688;2023-07-13T12:07:07;5.45;;;2.30;;
42244;SDS011;27912;51.828;5.688;2023-07-13T12:09:39;6.20;;;2.33;;
42244;SDS011;27912;51.828;5.688;2023-07-13T12:12:17;5.10;;;2.38;;
42244;SDS011;27912;51.828;5.688;2023-07-13T12:14:44;6.10;;;2.20;;
42244;SDS011;27912;51.828;5.688;2023-07-13T12:17:18;9.48;;;2.33;;
42244;SDS011;27912;51.828;5.688;2023-07-13T12:19:45;6.38;;;2.30;;
42244;SDS011;27912;51.828;5.688;2023-07-13T12:22:13;7.65;;;1.88;;
42244;SDS011;27912;51.828;5.688;2023-07-13T12:24:41;4.50;;;1.02;;
42244;SDS011;27912;51.828;5.688;2023-07-13T12:27:18;5.13;;;1.00;;
42244;SDS011;27912;51.828;5.688;2023-07-13T12:29:52;3.38;;;1.00;;
42244;SDS011;27912;51.828;5.688;2023-07-13T12:32:24;3.25;;;0.88;;
42244;SDS011;27912;51.828;5.688;2023-07-13T12:34:57;4.15;;;0.68;;
42244;SDS011;27912;51.828;5.688;2023-07-13T12:37:47;2.92;;;0.68;;
42244;SDS011;27912;51.828;5.688;2023-07-13T12:40:13;3.60;;;0.80;;
42244;SDS011;27912;51.828;5.688;2023-07-13T12:42:45;3.25;;;0.60;;
42244;SDS011;27912;51.828;5.688;2023-07-13T12:45:20;3.90;;;0.82;;
42244;SDS011;27912;51.828;5.688;2023-07-13T12:47:49;5.45;;;0.80;;
42244;SDS011;27912;51.828;5.688;2023-07-13T12:50:20;2.90;;;0.77;;
42244;SDS011;27912;51.828;5.688;2023-07-13T12:52:54;5.25;;;0.68;;
42244;SDS011;27912;51.828;5.688;2023-07-13T12:55:28;4.22;;;0.88;;
42244;SDS011;27912;51.828;5.688;2023-07-13T12:57:57;4.30;;;0.80;;
42244;SDS011;27912;51.828;5.688;2023-07-13T13:03:00;3.17;;;0.60;;
42244;SDS011;27912;51.828;5.688;2023-07-13T13:05:30;3.08;;;0.77;;
42244;SDS011;27912;51.828;5.688;2023-07-13T13:07:58;3.65;;;0.70;;
42244;SDS011;27912;51.828;5.688;2023-07-13T13:10:25;4.15;;;1.25;;
42244;SDS011;27912;51.828;5.688;2023-07-13T13:12:51;2.45;;;0.65;;
42244;SDS011;27912;51.828;5.688;2023-07-13T13:15:17;3.42;;;0.60;;
42244;SDS011;27912;51.828;5.688;2023-07-13T13:17:43;3.33;;;0.60;;
42244;SDS011;27912;51.828;5.688;2023-07-13T13:22:43;3.35;;;0.75;;
42244;SDS011;27912;51.828;5.688;2023-07-13T13:25:12;2.78;;;0.80;;
42244;SDS011;27912;51.828;5.688;2023-07-13T13:27:39;3.65;;;0.57;;
42244;SDS011;27912;51.828;5.688;2023-07-13T13:30:13;1.98;;;0.55;;
42244;SDS011;27912;51.828;5.688;2023-07-13T13:32:41;6.28;;;0.90;;
42244;SDS011;27912;51.828;5.688;2023-07-13T13:35:14;3.05;;;0.70;;
42244;SDS011;27912;51.828;5.688;2023-07-13T13:37:42;2.20;;;0.50;;
42244;SDS011;27912;51.828;5.688;2023-07-13T13:40:18;1.95;;;0.52;;
42244;SDS011;27912;51.828;5.688;2023-07-13T13:42:45;2.60;;;0.93;;
42244;SDS011;27912;51.828;5.688;2023-07-13T13:45:11;1.95;;;0.50;;
42244;SDS011;27912;51.828;5.688;2023-07-13T13:47:43;3.72;;;0.80;;
42244;SDS011;27912;51.828;5.688;2023-07-13T13:50:22;2.85;;;0.52;;
42244;SDS011;27912;51.828;5.688;2023-07-13T13:52:48;3.72;;;0.50;;
42244;SDS011;27912;51.828;5.688;2023-07-13T13:55:20;2.95;;;0.50;;
42244;SDS011;27912;51.828;5.688;2023-07-13T13:57:47;2.63;;;0.60;;
42244;SDS011;27912;51.828;5.688;2023-07-13T14:00:15;5.03;;;0.60;;
42244;SDS011;27912;51.828;5.688;2023-07-13T14:02:42;3.67;;;0.60;;
42244;SDS011;27912;51.828;5.688;2023-07-13T14:05:16;1.83;;;0.52;;
42244;SDS011;27912;51.828;5.688;2023-07-13T14:07:46;3.35;;;0.70;;
42244;SDS011;27912;51.828;5.688;2023-07-13T14:10:12;2.15;;;0.40;;
42244;SDS011;27912;51.828;5.688;2023-07-13T14:12:43;1.70;;;0.50;;
42244;SDS011;27912;51.828;5.688;2023-07-13T14:17:50;3.22;;;0.60;;
42244;SDS011;27912;51.828;5.688;2023-07-13T14:20:17;2.95;;;0.47;;
42244;SDS011;27912;51.828;5.688;2023-07-13T14:22:44;3.40;;;0.50;;
42244;SDS011;27912;51.828;5.688;2023-07-13T14:25:11;4.38;;;0.50;;
42244;SDS011;27912;51.828;5.688;2023-07-13T14:27:40;3.92;;;0.50;;
42244;SDS011;27912;51.828;5.688;2023-07-13T14:30:17;4.82;;;0.77;;
42244;SDS011;27912;51.828;5.688;2023-07-13T14:32:47;2.55;;;0.60;;
42244;SDS011;27912;51.828;5.688;2023-07-13T14:35:14;3.80;;;0.63;;
42244;SDS011;27912;51.828;5.688;2023-07-13T14:37:42;5.43;;;0.93;;
42244;SDS011;27912;51.828;5.688;2023-07-13T14:40:12;2.85;;;0.50;;
42244;SDS011;27912;51.828;5.688;2023-07-13T14:42:42;2.65;;;0.70;;
42244;SDS011;27912;51.828;5.688;2023-07-13T14:45:15;4.90;;;0.52;;
42244;SDS011;27912;51.828;5.688;2023-07-13T14:47:42;7.35;;;1.98;;
42244;SDS011;27912;51.828;5.688;2023-07-13T14:50:12;4.47;;;0.50;;
42244;SDS011;27912;51.828;5.688;2023-07-13T14:52:39;1.67;;;0.40;;
42244;SDS011;27912;51.828;5.688;2023-07-13T14:55:08;3.95;;;1.05;;
42244;SDS011;27912;51.828;5.688;2023-07-13T14:57:41;1.55;;;0.40;;
42244;SDS011;27912;51.828;5.688;2023-07-13T15:00:16;3.40;;;0.43;;
42244;SDS011;27912;51.828;5.688;2023-07-13T15:02:52;4.32;;;0.50;;
42244;SDS011;27912;51.828;5.688;2023-07-13T15:05:22;3.17;;;0.50;;
42244;SDS011;27912;51.828;5.688;2023-07-13T15:07:52;2.72;;;0.60;;
42244;SDS011;27912;51.828;5.688;2023-07-13T15:10:23;5.57;;;0.80;;
42244;SDS011;27912;51.828;5.688;2023-07-13T15:12:57;3.17;;;0.47;;
42244;SDS011;27912;51.828;5.688;2023-07-13T15:15:38;2.47;;;0.60;;
42244;SDS011;27912;51.828;5.688;2023-07-13T15:18:09;1.90;;;0.60;;
42244;SDS011;27912;51.828;5.688;2023-07-13T15:20:37;3.28;;;0.70;;
42244;SDS011;27912;51.828;5.688;2023-07-13T15:23:05;3.13;;;0.82;;
42244;SDS011;27912;51.828;5.688;2023-07-13T15:25:32;2.50;;;0.70;;
42244;SDS011;27912;51.828;5.688;2023-07-13T15:27:59;2.47;;;0.50;;
42244;SDS011;27912;51.828;5.688;2023-07-13T15:30:27;2.08;;;0.50;;
42244;SDS011;27912;51.828;5.688;2023-07-13T15:32:56;2.58;;;0.50;;
42244;SDS011;27912;51.828;5.688;2023-07-13T15:35:26;2.90;;;0.60;;
42244;SDS011;27912;51.828;5.688;2023-07-13T15:37:53;1.90;;;0.50;;
42244;SDS011;27912;51.828;5.688;2023-07-13T15:40:19;1.02;;;0.50;;